Time;durP1;ratioP1;P1;durP2;ratioP2;P2;SDS_P1;SDS_P2;PMS_P1;PMS_P2;Temp;Humidity;BMP_temperature;BMP_pressure;BME280_temperature;BME280_humidity;BME280_pressure;Samples;Min_cycle;Max_cycle;Signal;HPM_P1;HPM_P2
2021/12/05 00:24:12;;;;;;;32.08;22.80;;;3.60;74.50;;;;;;5086801;28;20024;-60
2021/12/05 00:26:39;;;;;;;30.23;22.60;;;3.70;74.80;;;;;;5076465;28;20120;-60
2021/12/05 00:42:40;;;;;;;28.23;20.88;;;3.90;75.00;;;;;;5082212;28;20026;-60
2021/12/05 01:03:47;;;;;;;27.50;20.48;;;4.00;74.90;;;;;;5082999;28;20029;-60
2021/12/05 01:16:27;;;;;;;28.35;19.98;;;4.00;74.90;;;;;;5082068;28;20115;-60
2021/12/05 01:18:53;;;;;;;25.42;20.30;;;4.00;74.90;;;;;;5080211;28;20016;-60
2021/12/05 01:21:22;;;;;;;24.85;19.33;;;4.10;75.10;;;;;;5078484;28;20070;-60
2021/12/05 01:26:30;;;;;;;27.23;20.63;;;4.10;75.00;;;;;;5085306;28;20047;-60
2021/12/05 01:29:25;;;;;;;27.63;20.05;;;4.10;75.00;;;;;;5079310;28;20468;-59
2021/12/05 01:32:08;;;;;;;33.03;22.98;;;4.10;74.80;;;;;;5080148;28;20028;-60
2021/12/05 01:34:54;;;;;;;28.05;19.80;;;4.00;74.60;;;;;;5079864;28;20024;-59
2021/12/05 01:37:29;;;;;;;29.90;21.88;;;4.10;74.60;;;;;;5084631;28;20083;-60
2021/12/05 01:40:45;;;;;;;30.80;22.75;;;4.10;74.40;;;;;;5085407;28;20028;-60
2021/12/05 01:54:02;;;;;;;29.70;22.02;;;4.00;74.80;;;;;;5086870;28;20544;-60
2021/12/05 01:56:10;;;;;;;29.00;20.92;;;4.00;74.60;;;;;;5073202;28;20064;-60
2021/12/05 02:32:16;;;;;;;28.50;21.33;;;4.00;74.80;;;;;;5082253;28;20085;-60
2021/12/05 02:38:38;;;;;;;25.58;20.38;;;4.00;74.40;;;;;;5067394;28;20036;-60
2021/12/05 02:43:12;;;;;;;26.35;20.52;;;4.00;74.30;;;;;;5084483;28;20111;-60
2021/12/05 02:45:41;;;;;;;28.75;20.15;;;3.90;74.20;;;;;;5089008;28;20016;-60
2021/12/05 02:48:08;;;;;;;29.95;19.23;;;3.90;74.10;;;;;;5076916;28;20024;-60
2021/12/05 02:50:37;;;;;;;31.60;22.45;;;3.90;74.30;;;;;;5085945;28;20032;-60
2021/12/05 02:53:18;;;;;;;28.40;21.98;;;3.80;74.20;;;;;;5083628;28;20162;-60
2021/12/05 02:55:47;;;;;;;30.15;20.55;;;3.80;74.40;;;;;;5081932;28;20078;-60
2021/12/05 02:58:22;;;;;;;30.02;21.65;;;3.80;74.60;;;;;;5079649;28;20110;-60
2021/12/05 03:03:19;;;;;;;34.38;23.08;;;3.80;74.60;;;;;;5088824;28;20036;-60
2021/12/05 03:05:51;;;;;;;31.55;23.27;;;3.80;74.30;;;;;;5074923;28;20024;-59
2021/12/05 03:08:18;;;;;;;37.20;26.00;;;3.80;74.30;;;;;;5075182;28;20372;-60
2021/12/05 03:10:44;;;;;;;38.20;27.40;;;3.70;74.30;;;;;;5074784;28;20024;-60
2021/12/05 03:13:10;;;;;;;37.53;26.75;;;3.60;74.30;;;;;;5094942;28;20020;-60
2021/12/05 03:15:36;;;;;;;40.00;29.90;;;3.50;74.50;;;;;;5081681;28;20025;-60
2021/12/05 03:18:01;;;;;;;41.05;28.88;;;3.40;74.70;;;;;;5090277;28;20016;-59
2021/12/05 03:20:27;;;;;;;41.45;29.25;;;3.30;75.10;;;;;;5091558;28;20529;-60
2021/12/05 03:22:53;;;;;;;37.75;29.02;;;3.20;75.50;;;;;;5085061;28;20098;-60
2021/12/05 03:25:19;;;;;;;40.38;30.45;;;3.20;75.70;;;;;;5082232;28;20028;-60
2021/12/05 03:27:45;;;;;;;43.47;30.08;;;3.20;75.80;;;;;;5094167;28;20467;-60
2021/12/05 03:30:17;;;;;;;40.90;30.35;;;3.20;76.20;;;;;;5083114;28;20016;-60
2021/12/05 03:32:46;;;;;;;41.17;29.50;;;3.30;76.10;;;;;;5078726;28;20020;-60
2021/12/05 03:35:12;;;;;;;41.28;29.55;;;3.30;75.90;;;;;;5085346;28;20399;-60
2021/12/05 03:37:37;;;;;;;40.60;29.83;;;3.30;75.70;;;;;;5076293;28;20031;-59
2021/12/05 03:40:07;;;;;;;43.05;30.58;;;3.20;75.80;;;;;;5093562;28;20016;-60
2021/12/05 03:42:33;;;;;;;39.35;29.65;;;3.10;76.30;;;;;;5093471;28;20077;-60
2021/12/05 03:44:59;;;;;;;39.83;28.88;;;3.10;76.50;;;;;;5080052;28;20519;-60
2021/12/05 03:47:28;;;;;;;37.17;28.73;;;3.10;76.70;;;;;;5077621;28;20138;-60
2021/12/05 03:49:54;;;;;;;38.85;28.60;;;3.10;76.90;;;;;;5084826;28;20016;-60
2021/12/05 03:52:20;;;;;;;38.53;28.70;;;3.20;76.80;;;;;;5084279;28;20287;-60
2021/12/05 03:54:45;;;;;;;39.47;27.77;;;3.30;76.80;;;;;;5084053;28;20479;-60
2021/12/05 03:57:12;;;;;;;37.45;26.33;;;3.30;76.60;;;;;;5087848;28;20020;-60
2021/12/05 03:59:38;;;;;;;35.60;26.95;;;3.30;76.40;;;;;;5081262;28;20067;-60
2021/12/05 04:02:06;;;;;;;40.22;26.50;;;3.30;76.30;;;;;;5080436;28;20060;-60
2021/12/05 04:04:33;;;;;;;37.72;26.35;;;3.30;76.10;;;;;;5080016;28;20024;-60
2021/12/05 04:07:00;;;;;;;37.33;27.15;;;3.30;76.10;;;;;;5082497;28;20041;-60
2021/12/05 04:09:26;;;;;;;41.05;28.02;;;3.30;76.10;;;;;;5086631;28;20024;-60
2021/12/05 04:11:59;;;;;;;39.88;28.70;;;3.30;76.10;;;;;;5082536;28;20029;-60
2021/12/05 04:14:42;;;;;;;40.25;27.73;;;3.30;76.10;;;;;;5076735;28;20463;-60
2021/12/05 04:17:09;;;;;;;39.00;26.50;;;3.30;75.90;;;;;;5086492;28;20485;-60
2021/12/05 04:19:36;;;;;;;40.60;26.85;;;3.30;75.90;;;;;;5092351;28;20108;-60
2021/12/05 04:22:04;;;;;;;41.50;27.15;;;3.30;75.90;;;;;;5092474;28;20455;-60
2021/12/05 04:24:30;;;;;;;45.63;28.63;;;3.20;75.80;;;;;;5073428;28;20028;-60
2021/12/05 04:26:56;;;;;;;42.72;25.42;;;3.20;75.80;;;;;;5073514;28;20021;-60
2021/12/05 04:29:22;;;;;;;41.15;24.85;;;3.10;75.60;;;;;;5080408;28;20472;-60
2021/12/05 04:31:48;;;;;;;41.63;26.45;;;3.10;75.90;;;;;;5073145;28;20021;-59
2021/12/05 04:34:14;;;;;;;42.45;24.67;;;3.10;75.80;;;;;;5073185;28;20459;-60
2021/12/05 04:36:42;;;;;;;35.97;22.83;;;3.00;75.90;;;;;;5090513;28;20028;-60
2021/12/05 04:39:08;;;;;;;40.17;23.45;;;3.00;76.10;;;;;;5077781;28;20042;-60
2021/12/05 04:41:34;;;;;;;41.45;23.13;;;3.00;76.20;;;;;;5091847;28;20034;-59
2021/12/05 04:44:01;;;;;;;35.78;21.88;;;3.00;76.20;;;;;;5093492;28;20502;-60
2021/12/05 04:46:27;;;;;;;32.13;22.52;;;3.00;76.10;;;;;;5093501;28;20020;-60
2021/12/05 04:48:54;;;;;;;34.70;21.83;;;3.00;76.10;;;;;;5078067;28;20041;-60
2021/12/05 04:51:23;;;;;;;35.70;22.10;;;2.90;76.10;;;;;;5076336;28;20032;-60
2021/12/05 04:53:49;;;;;;;33.35;20.52;;;2.90;76.10;;;;;;5073767;28;20028;-60
2021/12/05 04:56:16;;;;;;;31.23;20.63;;;2.80;76.10;;;;;;5087379;28;20023;-60
2021/12/05 04:58:42;;;;;;;31.67;19.23;;;2.90;76.40;;;;;;5090265;28;20467;-60
2021/12/05 05:01:08;;;;;;;27.17;17.15;;;2.90;76.50;;;;;;5074500;28;20483;-60
2021/12/05 05:03:35;;;;;;;29.38;19.10;;;2.90;76.60;;;;;;5073738;28;20020;-60
2021/12/05 05:06:12;;;;;;;28.92;18.30;;;2.90;76.70;;;;;;5079790;28;20031;-60
2021/12/05 05:08:38;;;;;;;29.30;17.95;;;3.00;76.70;;;;;;5072917;28;20119;-60
2021/12/05 05:11:08;;;;;;;27.45;18.08;;;3.10;76.70;;;;;;5074634;28;20185;-60
2021/12/05 05:13:34;;;;;;;28.20;18.45;;;3.10;76.40;;;;;;5073013;28;20532;-60
2021/12/05 05:16:01;;;;;;;27.33;17.42;;;3.00;76.20;;;;;;5075070;28;20064;-60
2021/12/05 05:18:34;;;;;;;28.55;18.90;;;3.00;76.10;;;;;;5088821;28;20032;-60
2021/12/05 05:21:50;;;;;;;25.88;17.58;;;3.00;76.10;;;;;;5080799;28;20911;-59
2021/12/05 05:26:47;;;;;;;25.88;17.60;;;3.00;76.40;;;;;;5080829;28;20036;-60
2021/12/05 05:40:47;;;;;;;25.15;17.38;;;3.00;76.10;;;;;;5072840;28;20078;-59
2021/12/05 05:50:35;;;;;;;21.00;16.88;;;3.10;76.10;;;;;;5093007;28;20028;-60
2021/12/05 05:53:00;;;;;;;24.90;17.25;;;3.20;76.20;;;;;;5092636;28;20074;-60
2021/12/05 05:55:26;;;;;;;21.20;16.52;;;3.20;76.20;;;;;;5080507;28;20123;-60
2021/12/05 06:00:53;;;;;;;24.60;16.85;;;3.20;75.90;;;;;;5072377;28;20379;-60
2021/12/05 06:03:25;;;;;;;21.23;16.08;;;3.20;76.00;;;;;;5078975;28;20032;-59
2021/12/05 06:06:04;;;;;;;22.17;17.35;;;3.30;76.00;;;;;;5075480;28;20048;-60
2021/12/05 06:08:32;;;;;;;20.48;14.98;;;3.30;75.90;;;;;;5076509;28;20093;-60
2021/12/05 06:11:00;;;;;;;22.13;16.08;;;3.40;75.90;;;;;;5085307;28;20448;-59
2021/12/05 06:13:28;;;;;;;19.73;14.73;;;3.50;75.90;;;;;;5077432;28;20478;-60
2021/12/05 06:15:54;;;;;;;21.30;16.23;;;3.50;75.40;;;;;;5076725;28;20023;-60
2021/12/05 06:18:20;;;;;;;21.58;14.77;;;3.50;75.10;;;;;;5085382;28;20381;-60
2021/12/05 06:20:47;;;;;;;21.42;16.05;;;3.60;74.70;;;;;;5087736;28;20058;-60
2021/12/05 06:23:13;;;;;;;20.83;15.45;;;3.50;74.30;;;;;;5083468;28;20148;-60
2021/12/05 06:25:44;;;;;;;20.73;16.15;;;3.50;74.50;;;;;;5081732;28;20495;-60
2021/12/05 06:28:13;;;;;;;24.98;16.63;;;3.50;74.60;;;;;;5095091;28;20035;-60
2021/12/05 06:31:43;;;;;;;19.90;15.70;;;3.50;74.70;;;;;;5094595;28;20020;-60
2021/12/05 06:41:48;;;;;;;26.40;17.88;;;3.20;74.40;;;;;;5084338;28;20024;-60
2021/12/05 06:46:59;;;;;;;22.38;15.73;;;3.00;74.50;;;;;;5079885;28;20051;-60
2021/12/05 06:49:24;;;;;;;20.23;13.65;;;2.90;74.30;;;;;;5086048;28;20024;-59
2021/12/05 06:51:50;;;;;;;20.20;13.15;;;2.90;74.50;;;;;;5090875;28;20030;-60
2021/12/05 06:54:16;;;;;;;16.02;11.25;;;2.70;74.60;;;;;;5094895;28;20050;-59
2021/12/05 06:56:41;;;;;;;20.85;12.70;;;2.60;74.50;;;;;;5081098;28;20028;-60
2021/12/05 06:59:07;;;;;;;20.17;13.13;;;2.50;75.00;;;;;;5077082;28;20021;-60
2021/12/05 07:01:33;;;;;;;24.40;13.85;;;2.50;75.30;;;;;;5080386;28;20024;-60
2021/12/05 07:04:06;;;;;;;21.33;13.80;;;2.40;75.70;;;;;;5085224;28;20107;-60
2021/12/05 07:06:32;;;;;;;21.20;13.80;;;2.40;76.20;;;;;;5075136;28;20034;-60
2021/12/05 07:09:05;;;;;;;22.90;14.20;;;2.40;76.60;;;;;;5074536;28;20028;-60
2021/12/05 07:24:35;;;;;;;18.83;11.82;;;2.70;76.30;;;;;;5082217;28;20036;-60
2021/12/05 07:42:51;;;;;;;16.70;11.43;;;2.50;75.70;;;;;;5086791;28;20040;-60
2021/12/05 07:45:22;;;;;;;16.08;11.40;;;2.50;76.20;;;;;;5074301;28;20477;-60
2021/12/05 07:47:53;;;;;;;17.80;12.27;;;2.50;76.60;;;;;;5077230;28;20039;-60
2021/12/05 07:50:25;;;;;;;18.00;12.55;;;2.60;76.80;;;;;;5094123;28;20044;-59
2021/12/05 07:52:53;;;;;;;20.48;13.88;;;2.70;76.70;;;;;;5089638;28;20047;-60
2021/12/05 07:55:28;;;;;;;19.35;12.57;;;2.80;76.80;;;;;;5081585;28;20052;-60
2021/12/05 08:17:14;;;;;;;22.67;15.13;;;2.60;75.50;;;;;;5021464;28;20386;-60
2021/12/05 08:19:40;;;;;;;20.98;14.30;;;2.60;75.80;;;;;;5031536;28;20033;-60
2021/12/05 08:22:05;;;;;;;24.85;15.20;;;2.70;76.00;;;;;;5048317;28;20385;-60
2021/12/05 08:24:33;;;;;;;27.45;15.88;;;2.80;76.20;;;;;;5057527;28;20064;-60
2021/12/05 08:27:00;;;;;;;24.73;15.98;;;2.80;75.60;;;;;;5057633;28;20033;-60
2021/12/05 08:29:35;;;;;;;25.52;16.98;;;2.80;75.40;;;;;;5057874;28;20039;-60
2021/12/05 09:26:27;;;;;;;31.70;19.63;;;3.00;74.00;;;;;;5081662;28;20132;-61
2021/12/05 09:38:35;;;;;;;27.75;19.52;;;3.10;73.70;;;;;;5079035;28;20032;-61
2021/12/05 09:40:09;;;;;;;40.72;24.90;;;3.10;73.40;;;;;;5079786;28;20540;-61
2021/12/05 10:07:18;;;;;;;28.95;18.27;;;2.10;73.90;;;;;;5082944;28;20046;-60
2021/12/05 10:18:45;;;;;;;22.75;15.32;;;2.20;73.70;;;;;;5096014;28;20035;-60
2021/12/05 10:35:54;;;;;;;26.83;18.23;;;2.20;74.40;;;;;;5073430;28;20099;-60
2021/12/05 10:38:31;;;;;;;24.38;17.27;;;2.30;74.40;;;;;;5082191;28;20032;-60
2021/12/05 10:43:43;;;;;;;19.75;14.65;;;2.60;73.80;;;;;;5083353;28;20065;-60
2021/12/05 10:46:12;;;;;;;20.88;14.40;;;2.70;73.40;;;;;;5084627;28;20035;-61
2021/12/05 10:48:44;;;;;;;19.17;14.20;;;2.70;72.80;;;;;;5082166;28;20494;-61
2021/12/05 10:51:16;;;;;;;18.63;13.63;;;2.70;72.40;;;;;;5094704;28;20032;-60
2021/12/05 10:53:55;;;;;;;19.30;12.90;;;2.50;72.00;;;;;;5081994;28;20043;-60
2021/12/05 10:56:30;;;;;;;20.08;14.07;;;2.40;72.20;;;;;;5091743;28;20028;-60
2021/12/05 10:59:12;;;;;;;20.10;15.38;;;2.40;72.80;;;;;;5082452;28;20070;-60
2021/12/05 11:01:49;;;;;;;18.20;14.10;;;2.40;73.10;;;;;;5075683;28;20024;-60
2021/12/05 11:04:22;;;;;;;19.50;14.88;;;2.50;73.40;;;;;;5087597;28;20074;-61
2021/12/05 11:06:55;;;;;;;21.48;14.55;;;2.60;73.70;;;;;;5092611;28;20059;-60
2021/12/05 11:09:36;;;;;;;17.77;14.43;;;2.80;73.40;;;;;;5078447;28;20016;-61
2021/12/05 11:12:08;;;;;;;20.77;14.90;;;3.00;73.10;;;;;;5072727;28;20025;-61
2021/12/05 11:14:46;;;;;;;17.63;14.05;;;3.10;73.00;;;;;;5076609;28;20049;-63
2021/12/05 11:17:18;;;;;;;19.02;13.68;;;3.20;72.60;;;;;;5083699;28;20016;-60
2021/12/05 11:20:28;;;;;;;18.83;14.23;;;3.30;72.30;;;;;;5081388;28;20024;-61
2021/12/05 11:22:54;;;;;;;18.75;13.15;;;3.40;71.90;;;;;;5090125;28;20047;-61
2021/12/05 11:25:27;;;;;;;21.13;13.80;;;3.50;71.50;;;;;;5074686;28;20033;-60
2021/12/05 11:27:55;;;;;;;18.27;12.93;;;3.50;71.40;;;;;;5082266;28;20047;-60
2021/12/05 11:30:33;;;;;;;16.73;12.95;;;3.50;71.20;;;;;;5087138;28;20025;-61
2021/12/05 11:33:05;;;;;;;16.17;11.55;;;3.50;71.80;;;;;;5074107;28;20376;-61
2021/12/05 11:35:35;;;;;;;16.30;11.50;;;3.50;71.20;;;;;;5075248;28;20020;-61
2021/12/05 11:38:19;;;;;;;17.33;11.65;;;3.50;70.70;;;;;;5079162;28;20050;-60
2021/12/05 11:41:03;;;;;;;16.95;11.32;;;3.50;70.40;;;;;;5082568;28;20024;-61
2021/12/05 11:43:38;;;;;;;17.73;11.82;;;3.40;70.70;;;;;;5071310;28;20065;-61
2021/12/05 11:46:15;;;;;;;15.27;11.35;;;3.40;70.70;;;;;;5077904;28;20372;-61
2021/12/05 11:48:49;;;;;;;17.48;11.68;;;3.40;71.00;;;;;;5080200;28;20020;-61
2021/12/05 11:51:36;;;;;;;16.27;11.68;;;3.40;71.00;;;;;;5081463;28;20371;-61
2021/12/05 11:54:09;;;;;;;17.45;12.38;;;3.40;71.10;;;;;;5078843;28;20024;-61
2021/12/05 11:56:34;;;;;;;17.42;13.07;;;3.40;70.60;;;;;;5081995;28;20157;-61
2021/12/05 11:59:15;;;;;;;17.67;12.10;;;3.40;70.70;;;;;;5085974;28;20099;-61
2021/12/05 12:01:46;;;;;;;15.15;10.82;;;3.40;70.50;;;;;;5080230;28;20077;-60
2021/12/05 12:04:15;;;;;;;14.35;10.20;;;3.50;70.70;;;;;;5079116;28;20071;-60
2021/12/05 12:06:42;;;;;;;13.98;9.85;;;3.50;70.20;;;;;;5080492;28;20520;-61
2021/12/05 12:09:08;;;;;;;13.55;10.60;;;3.50;70.00;;;;;;5087962;28;20028;-60
2021/12/05 12:11:34;;;;;;;13.52;10.10;;;3.40;69.90;;;;;;5076582;28;20043;-61
2021/12/05 12:14:01;;;;;;;13.18;9.52;;;3.30;69.50;;;;;;5071550;28;20113;-61
2021/12/05 12:16:33;;;;;;;15.07;10.43;;;3.10;69.40;;;;;;5081207;28;20372;-61
2021/12/05 12:18:59;;;;;;;13.90;10.80;;;2.90;69.70;;;;;;5077205;28;20047;-61
2021/12/05 12:21:33;;;;;;;15.43;10.63;;;2.70;70.20;;;;;;5079617;28;20462;-60
2021/12/05 12:23:59;;;;;;;12.88;10.18;;;2.70;71.10;;;;;;5073185;28;20472;-60
2021/12/05 12:26:25;;;;;;;12.68;9.95;;;2.70;71.40;;;;;;5075766;28;20035;-61
2021/12/05 12:28:55;;;;;;;13.32;10.30;;;2.70;71.60;;;;;;5079580;28;20414;-60
2021/12/05 12:31:31;;;;;;;14.77;11.40;;;2.80;71.30;;;;;;5075691;28;20035;-60
2021/12/05 12:34:03;;;;;;;14.13;11.35;;;2.80;71.40;;;;;;5075119;28;20028;-59
2021/12/05 12:36:39;;;;;;;13.55;10.85;;;2.80;71.60;;;;;;5082792;28;20024;-60
2021/12/05 12:39:16;;;;;;;16.98;12.02;;;2.80;71.40;;;;;;5081264;28;20027;-60
2021/12/05 12:42:02;;;;;;;16.83;12.30;;;2.80;71.30;;;;;;5076196;28;20032;-60
2021/12/05 12:44:28;;;;;;;15.85;11.10;;;2.80;71.40;;;;;;5074887;28;20029;-60
2021/12/05 12:47:04;;;;;;;17.45;13.13;;;2.80;71.60;;;;;;5073837;28;20017;-60
2021/12/05 12:49:34;;;;;;;16.88;12.98;;;2.70;71.60;;;;;;5068999;28;20111;-60
2021/12/05 12:52:05;;;;;;;19.05;12.95;;;2.70;71.60;;;;;;5080296;28;20538;-60
2021/12/05 12:54:44;;;;;;;19.05;13.23;;;2.70;71.70;;;;;;5075534;28;20027;-60
2021/12/05 12:57:18;;;;;;;19.77;13.70;;;2.70;72.00;;;;;;5072920;28;20020;-60
2021/12/05 12:59:55;;;;;;;20.15;13.65;;;2.70;72.30;;;;;;5082912;28;20024;-60
2021/12/05 13:02:36;;;;;;;19.08;13.80;;;2.80;72.30;;;;;;5077283;28;20032;-61
2021/12/05 13:05:34;;;;;;;23.63;15.77;;;2.80;72.00;;;;;;5074860;28;20460;-59
2021/12/05 13:11:08;;;;;;;21.40;15.13;;;2.80;71.80;;;;;;5079229;28;20158;-59
2021/12/05 13:13:36;;;;;;;17.85;13.70;;;2.80;71.90;;;;;;5072215;28;20471;-60
2021/12/05 13:16:29;;;;;;;17.92;12.80;;;2.80;72.00;;;;;;5078103;28;20477;-60
2021/12/05 13:19:05;;;;;;;15.93;11.48;;;2.80;72.00;;;;;;5076803;28;20086;-61
2021/12/05 13:21:39;;;;;;;17.30;11.57;;;2.80;71.90;;;;;;5080647;28;20071;-60
2021/12/05 13:24:42;;;;;;;16.27;10.90;;;2.80;71.80;;;;;;5080205;28;20029;-60
2021/12/05 13:27:23;;;;;;;17.30;11.02;;;2.80;71.70;;;;;;5065746;28;20052;-61
2021/12/05 13:29:51;;;;;;;16.58;12.75;;;2.80;71.90;;;;;;5077054;28;20082;-60
2021/12/05 13:32:25;;;;;;;16.02;11.88;;;2.80;71.90;;;;;;5087937;28;20107;-59
2021/12/05 13:35:00;;;;;;;15.90;11.70;;;2.70;71.80;;;;;;5078352;28;20028;-61
2021/12/05 13:37:29;;;;;;;13.70;11.52;;;2.70;72.00;;;;;;5080783;28;20396;-60
2021/12/05 13:40:16;;;;;;;15.45;11.70;;;2.60;71.80;;;;;;5082744;28;20099;-60
2021/12/05 13:42:49;;;;;;;16.83;12.25;;;2.50;72.60;;;;;;5080385;28;20029;-60
2021/12/05 13:45:21;;;;;;;17.00;12.68;;;2.50;72.40;;;;;;5079624;28;20032;-59
2021/12/05 13:48:05;;;;;;;19.55;13.75;;;2.40;72.50;;;;;;5085775;28;20065;-60
2021/12/05 13:50:42;;;;;;;16.75;13.07;;;2.40;72.90;;;;;;5077632;28;20036;-60
2021/12/05 13:53:07;;;;;;;17.13;12.70;;;2.50;73.10;;;;;;5081361;28;20387;-61
2021/12/05 13:55:41;;;;;;;16.75;12.55;;;2.60;73.20;;;;;;5087524;28;20023;-62
2021/12/05 13:58:24;;;;;;;19.05;13.05;;;2.60;72.70;;;;;;5078333;28;20051;-62
2021/12/05 14:00:53;;;;;;;16.50;12.45;;;2.60;72.70;;;;;;5084766;28;20070;-62
2021/12/05 14:03:47;;;;;;;16.35;11.73;;;2.60;72.60;;;;;;5086062;28;20531;-62
2021/12/05 14:06:36;;;;;;;16.30;11.55;;;2.60;72.60;;;;;;5048681;28;20078;-62
2021/12/05 14:09:07;;;;;;;14.65;11.70;;;2.60;72.80;;;;;;5078442;28;20040;-62
2021/12/05 14:11:41;;;;;;;16.75;12.60;;;2.50;72.70;;;;;;5085189;28;20028;-62
2021/12/05 14:14:07;;;;;;;17.15;13.32;;;2.50;72.90;;;;;;5086140;28;20034;-62
2021/12/05 14:16:36;;;;;;;16.75;12.70;;;2.40;72.90;;;;;;5085471;28;20472;-62
2021/12/05 14:19:09;;;;;;;16.48;12.10;;;2.40;73.20;;;;;;5084014;28;20374;-64
2021/12/05 14:21:42;;;;;;;16.00;12.10;;;2.40;73.20;;;;;;5087338;28;20101;-62
2021/12/05 14:24:09;;;;;;;16.73;13.55;;;2.40;73.20;;;;;;5086369;28;20032;-62
2021/12/05 14:26:39;;;;;;;16.75;13.13;;;2.50;73.40;;;;;;5083417;28;20553;-62
2021/12/05 14:29:04;;;;;;;17.80;12.43;;;2.50;73.40;;;;;;5084397;28;20060;-62
2021/12/05 14:31:46;;;;;;;20.67;15.15;;;2.50;73.20;;;;;;5080845;28;20440;-62
2021/12/05 14:34:13;;;;;;;16.40;13.23;;;2.40;73.20;;;;;;5084454;28;20498;-62
2021/12/05 14:36:55;;;;;;;18.27;13.45;;;2.40;73.50;;;;;;5075389;28;20032;-64
2021/12/05 14:39:28;;;;;;;18.33;14.30;;;2.50;73.70;;;;;;5077526;28;20016;-64
2021/12/05 14:42:05;;;;;;;18.33;13.65;;;2.50;73.80;;;;;;5076243;28;20029;-62
2021/12/05 14:44:32;;;;;;;17.42;13.35;;;2.60;73.80;;;;;;5085095;28;20036;-62
2021/12/05 14:47:04;;;;;;;18.13;13.60;;;2.70;73.80;;;;;;5078262;28;20055;-62
2021/12/05 14:49:34;;;;;;;20.38;14.85;;;2.80;73.70;;;;;;5081370;28;20028;-62
2021/12/05 14:52:02;;;;;;;21.98;16.85;;;2.80;73.50;;;;;;5084859;28;20106;-62
2021/12/05 14:54:34;;;;;;;20.98;15.85;;;2.90;73.40;;;;;;5086984;28;20063;-62
2021/12/05 14:57:12;;;;;;;19.25;15.35;;;2.90;73.30;;;;;;5079547;28;20028;-62
2021/12/05 14:59:39;;;;;;;20.10;15.40;;;3.00;73.30;;;;;;5080509;28;20031;-62
2021/12/05 15:02:05;;;;;;;20.15;15.10;;;3.00;73.30;;;;;;5085781;28;20051;-62
2021/12/05 15:04:36;;;;;;;19.05;15.05;;;3.10;73.30;;;;;;5085901;28;20050;-62
2021/12/05 15:07:03;;;;;;;21.40;15.48;;;3.20;73.20;;;;;;5088742;28;20383;-62
2021/12/05 15:09:39;;;;;;;20.13;15.23;;;3.20;73.00;;;;;;5085340;28;20035;-62
2021/12/05 15:12:20;;;;;;;18.95;13.73;;;3.20;72.80;;;;;;5085179;28;20039;-62
2021/12/05 15:14:49;;;;;;;17.97;13.73;;;3.20;72.60;;;;;;5089713;28;20020;-62
2021/12/05 15:17:17;;;;;;;19.85;13.20;;;3.20;72.60;;;;;;5086695;28;20265;-62
2021/12/05 15:19:46;;;;;;;19.63;14.13;;;3.20;72.60;;;;;;5083362;28;20403;-62
2021/12/05 15:22:13;;;;;;;18.45;13.68;;;3.20;72.60;;;;;;5080884;28;20051;-62
2021/12/05 15:24:40;;;;;;;20.08;14.63;;;3.20;72.80;;;;;;5078118;28;20257;-63
2021/12/05 15:27:17;;;;;;;19.95;15.23;;;3.30;73.00;;;;;;5078814;28;20070;-63
2021/12/05 15:29:49;;;;;;;21.15;14.20;;;3.40;73.00;;;;;;5079856;28;20555;-63
2021/12/05 15:32:21;;;;;;;15.77;12.98;;;3.40;72.70;;;;;;5081389;28;20039;-63
2021/12/05 15:34:54;;;;;;;18.33;14.27;;;3.40;72.50;;;;;;5085320;28;20031;-63
2021/12/05 15:37:20;;;;;;;17.88;13.85;;;3.50;72.40;;;;;;5076327;28;20767;-63
2021/12/05 15:39:48;;;;;;;18.77;14.23;;;3.50;72.20;;;;;;5085106;28;20061;-62
2021/12/05 15:42:26;;;;;;;17.10;13.48;;;3.40;72.20;;;;;;5076379;28;20040;-63
2021/12/05 15:44:56;;;;;;;20.30;16.40;;;3.40;72.30;;;;;;5078027;28;20024;-63
2021/12/05 15:47:28;;;;;;;20.10;15.02;;;3.50;72.30;;;;;;5075679;28;20036;-63
2021/12/05 15:49:58;;;;;;;19.23;14.65;;;3.50;72.50;;;;;;5080332;28;20031;-63
2021/12/05 15:52:46;;;;;;;20.85;16.40;;;3.50;72.40;;;;;;5074658;28;20029;-63
2021/12/05 15:55:30;;;;;;;22.85;15.95;;;3.60;72.60;;;;;;5080549;28;20050;-63
2021/12/05 15:58:09;;;;;;;22.75;16.35;;;3.60;72.30;;;;;;5075102;28;20025;-63
2021/12/05 16:00:45;;;;;;;20.75;15.75;;;3.60;72.10;;;;;;5080712;28;20024;-64
2021/12/05 16:03:17;;;;;;;20.70;14.50;;;3.60;72.10;;;;;;5077766;28;20045;-62
2021/12/05 16:05:44;;;;;;;;;;;3.60;71.90;;;;;;5087019;28;20031;-63
2021/12/05 16:08:13;;;;;;;18.17;14.55;;;3.50;71.90;;;;;;5085229;28;19909;-62
2021/12/05 16:10:44;;;;;;;20.23;15.30;;;3.50;72.00;;;;;;5079698;28;20033;-62
2021/12/05 16:13:21;;;;;;;18.83;14.77;;;3.50;72.10;;;;;;5079323;28;20016;-62
2021/12/05 16:15:51;;;;;;;21.33;15.35;;;3.50;72.20;;;;;;5087502;28;20036;-62
2021/12/05 16:18:17;;;;;;;20.55;15.85;;;3.50;72.30;;;;;;5082105;28;20409;-62
2021/12/05 16:20:48;;;;;;;18.58;15.15;;;3.50;72.20;;;;;;5071743;28;20035;-62
2021/12/05 16:23:20;;;;;;;20.40;15.07;;;3.50;72.30;;;;;;5080713;28;20051;-62
2021/12/05 16:25:54;;;;;;;22.55;15.98;;;3.60;72.40;;;;;;5076224;28;20413;-62
2021/12/05 16:28:25;;;;;;;20.63;15.35;;;3.60;72.50;;;;;;5072480;28;20052;-63
2021/12/05 16:31:01;;;;;;;20.53;16.10;;;3.70;72.20;;;;;;5082231;28;20421;-62
2021/12/05 16:33:29;;;;;;;20.67;15.35;;;3.70;72.20;;;;;;5077227;28;20501;-62
2021/12/05 16:35:58;;;;;;;18.48;14.68;;;3.70;72.20;;;;;;5083123;28;20024;-62
2021/12/05 16:38:32;;;;;;;20.88;15.38;;;3.80;72.00;;;;;;5075930;28;20020;-62
2021/12/05 16:41:12;;;;;;;18.83;14.85;;;3.80;71.80;;;;;;5082992;28;20077;-62
2021/12/05 16:43:57;;;;;;;19.67;14.95;;;3.80;71.80;;;;;;5075566;28;20074;-62
2021/12/05 16:46:32;;;;;;;24.17;16.38;;;3.80;71.80;;;;;;5073767;28;20112;-62
2021/12/05 16:49:01;;;;;;;21.05;15.98;;;3.70;71.80;;;;;;5075338;28;20511;-62
2021/12/05 16:51:45;;;;;;;22.80;16.40;;;3.70;71.80;;;;;;5072995;28;20036;-62
2021/12/05 16:54:20;;;;;;;19.88;15.23;;;3.70;71.90;;;;;;5078534;28;20391;-62
2021/12/05 16:57:01;;;;;;;22.10;15.80;;;3.70;72.00;;;;;;5083092;28;20044;-61
2021/12/05 16:59:41;;;;;;;20.37;15.37;;;3.70;72.20;;;;;;5079869;28;20028;-63
2021/12/05 17:02:22;;;;;;;20.30;16.20;;;3.70;72.10;;;;;;5078948;28;20364;-61
2021/12/05 17:05:03;;;;;;;23.33;17.73;;;3.70;71.90;;;;;;5071843;28;20480;-61
2021/12/05 17:07:50;;;;;;;22.38;17.17;;;3.70;71.80;;;;;;5075740;28;20032;-62
2021/12/05 17:10:25;;;;;;;23.52;17.15;;;3.60;71.90;;;;;;5076876;28;20415;-62
2021/12/05 17:12:53;;;;;;;25.52;18.05;;;3.60;72.10;;;;;;5076404;28;20074;-62
2021/12/05 17:15:21;;;;;;;24.20;18.38;;;3.50;72.00;;;;;;5076376;28;20050;-62
2021/12/05 17:17:48;;;;;;;27.58;19.55;;;3.50;72.30;;;;;;5088458;28;20035;-62
2021/12/05 17:20:43;;;;;;;27.48;19.48;;;3.40;72.40;;;;;;5082956;28;20033;-62
2021/12/05 17:23:20;;;;;;;23.92;15.88;;;3.40;72.60;;;;;;5079421;28;20044;-62
2021/12/05 17:25:52;;;;;;;24.92;17.38;;;3.30;72.40;;;;;;5077583;28;20098;-62
2021/12/05 17:28:30;;;;;;;21.60;16.88;;;3.20;72.80;;;;;;5077171;28;20040;-62
2021/12/05 17:30:59;;;;;;;18.95;14.65;;;3.20;73.00;;;;;;5079300;28;20021;-62
2021/12/05 17:33:43;;;;;;;21.30;15.45;;;3.10;73.50;;;;;;5073383;28;20096;-62
2021/12/05 17:36:22;;;;;;;20.30;15.73;;;3.00;73.50;;;;;;5076534;28;20036;-62
2021/12/05 17:38:50;;;;;;;20.27;14.98;;;3.00;73.90;;;;;;5078803;28;20028;-62
2021/12/05 17:41:16;;;;;;;20.75;15.30;;;3.00;74.40;;;;;;5076649;28;20119;-62
2021/12/05 17:43:42;;;;;;;18.58;15.60;;;3.10;74.60;;;;;;5082739;28;20035;-62
2021/12/05 17:46:08;;;;;;;20.60;15.35;;;3.20;75.20;;;;;;5082599;28;20032;-62
2021/12/05 17:48:34;;;;;;;19.15;15.45;;;3.30;74.70;;;;;;5072116;28;20044;-62
2021/12/05 17:51:04;;;;;;;22.23;15.38;;;3.40;74.70;;;;;;5073396;28;20028;-62
2021/12/05 17:53:34;;;;;;;21.50;15.82;;;3.40;74.30;;;;;;5073463;28;20111;-62
2021/12/05 17:56:07;;;;;;;19.35;15.00;;;3.60;74.20;;;;;;5081267;28;20381;-62
2021/12/05 18:03:52;;;;;;;22.30;16.10;;;3.70;73.60;;;;;;5077201;28;20172;-62
2021/12/05 18:06:19;;;;;;;19.70;15.05;;;3.70;73.50;;;;;;5074578;28;20020;-62
2021/12/05 18:08:47;;;;;;;22.25;15.63;;;3.70;73.30;;;;;;5077388;28;20027;-62
2021/12/05 18:11:19;;;;;;;21.40;14.68;;;3.70;73.20;;;;;;5074506;28;20029;-62
2021/12/05 18:13:50;;;;;;;21.73;15.90;;;3.70;73.20;;;;;;5076352;28;20067;-62
2021/12/05 18:16:23;;;;;;;19.88;15.00;;;3.70;73.20;;;;;;5077966;28;20024;-62
2021/12/05 18:18:49;;;;;;;20.13;14.77;;;3.70;73.50;;;;;;5081487;28;20039;-62
2021/12/05 18:21:15;;;;;;;21.30;14.98;;;3.60;73.50;;;;;;5077604;28;20044;-62
2021/12/05 18:23:41;;;;;;;20.52;14.85;;;3.70;73.60;;;;;;5076231;28;20040;-62
2021/12/05 18:26:07;;;;;;;24.02;16.55;;;3.70;73.70;;;;;;5080793;28;20610;-62
2021/12/05 18:28:38;;;;;;;24.00;16.35;;;3.70;73.80;;;;;;5095171;28;20066;-62